sensor_id;sensor_type;location;lat;lon;timestamp;temperature;humidity
7290;DHT22;63176;52.678;13.250;2023-04-06T00:01:41;4.90;97.10
7290;DHT22;63176;52.678;13.250;2023-04-06T00:04:07;4.90;99.20
7290;DHT22;63176;52.678;13.250;2023-04-06T00:06:33;4.80;97.40
7290;DHT22;63176;52.678;13.250;2023-04-06T00:09:00;4.80;98.00
7290;DHT22;63176;52.678;13.250;2023-04-06T00:11:26;4.70;97.70
7290;DHT22;63176;52.678;13.250;2023-04-06T00:13:52;4.60;96.20
7290;DHT22;63176;52.678;13.250;2023-04-06T00:16:18;4.70;97.00
7290;DHT22;63176;52.678;13.250;2023-04-06T00:18:44;4.60;97.00
7290;DHT22;63176;52.678;13.250;2023-04-06T00:21:12;4.60;97.60
7290;DHT22;63176;52.678;13.250;2023-04-06T00:23:38;4.60;97.30
7290;DHT22;63176;52.678;13.250;2023-04-06T00:26:04;4.60;97.30
7290;DHT22;63176;52.678;13.250;2023-04-06T00:28:30;4.60;95.60
7290;DHT22;63176;52.678;13.250;2023-04-06T00:30:56;4.60;96.80
7290;DHT22;63176;52.678;13.250;2023-04-06T00:33:22;4.40;96.30
7290;DHT22;63176;52.678;13.250;2023-04-06T00:35:48;4.40;97.00
7290;DHT22;63176;52.678;13.250;2023-04-06T00:38:15;4.20;95.50
7290;DHT22;63176;52.678;13.250;2023-04-06T00:40:41;4.00;94.40
7290;DHT22;63176;52.678;13.250;2023-04-06T00:43:07;3.90;94.90
7290;DHT22;63176;52.678;13.250;2023-04-06T00:45:34;3.80;96.10
7290;DHT22;63176;52.678;13.250;2023-04-06T00:48:00;3.80;95.70
7290;DHT22;63176;52.678;13.250;2023-04-06T00:50:27;3.80;94.90
7290;DHT22;63176;52.678;13.250;2023-04-06T00:52:54;3.70;95.00
7290;DHT22;63176;52.678;13.250;2023-04-06T00:55:20;3.60;94.60
7290;DHT22;63176;52.678;13.250;2023-04-06T00:57:45;3.50;93.90
7290;DHT22;63176;52.678;13.250;2023-04-06T01:00:12;3.40;93.80
7290;DHT22;63176;52.678;13.250;2023-04-06T01:02:38;3.30;94.60
7290;DHT22;63176;52.678;13.250;2023-04-06T01:05:04;3.20;93.40
7290;DHT22;63176;52.678;13.250;2023-04-06T01:07:30;3.10;93.10
7290;DHT22;63176;52.678;13.250;2023-04-06T01:09:56;3.00;92.80
7290;DHT22;63176;52.678;13.250;2023-04-06T01:12:22;3.00;92.80
7290;DHT22;63176;52.678;13.250;2023-04-06T01:14:47;2.90;92.30
7290;DHT22;63176;52.678;13.250;2023-04-06T01:17:13;2.80;92.30
7290;DHT22;63176;52.678;13.250;2023-04-06T01:19:39;2.70;92.40
7290;DHT22;63176;52.678;13.250;2023-04-06T01:22:06;2.60;92.60
7290;DHT22;63176;52.678;13.250;2023-04-06T01:24:32;2.50;91.70
7290;DHT22;63176;52.678;13.250;2023-04-06T01:26:58;2.50;91.80
7290;DHT22;63176;52.678;13.250;2023-04-06T01:29:24;2.40;91.90
7290;DHT22;63176;52.678;13.250;2023-04-06T01:31:50;2.30;91.50
7290;DHT22;63176;52.678;13.250;2023-04-06T01:34:16;2.30;90.40
7290;DHT22;63176;52.678;13.250;2023-04-06T01:36:42;2.20;91.30
7290;DHT22;63176;52.678;13.250;2023-04-06T01:39:07;2.20;90.90
7290;DHT22;63176;52.678;13.250;2023-04-06T01:41:33;2.10;90.90
7290;DHT22;63176;52.678;13.250;2023-04-06T01:43:59;2.00;90.50
7290;DHT22;63176;52.678;13.250;2023-04-06T01:46:25;2.00;90.30
7290;DHT22;63176;52.678;13.250;2023-04-06T01:48:51;1.90;90.10
7290;DHT22;63176;52.678;13.250;2023-04-06T01:51:17;2.00;92.00
7290;DHT22;63176;52.678;13.250;2023-04-06T01:53:43;2.00;91.10
7290;DHT22;63176;52.678;13.250;2023-04-06T01:56:08;2.00;91.50
7290;DHT22;63176;52.678;13.250;2023-04-06T01:58:34;1.90;90.70
7290;DHT22;63176;52.678;13.250;2023-04-06T02:01:00;1.90;91.00
7290;DHT22;63176;52.678;13.250;2023-04-06T02:03:26;1.90;90.90
7290;DHT22;63176;52.678;13.250;2023-04-06T02:05:51;1.80;90.00
7290;DHT22;63176;52.678;13.250;2023-04-06T02:08:17;1.70;90.40
7290;DHT22;63176;52.678;13.250;2023-04-06T02:10:43;1.70;90.30
7290;DHT22;63176;52.678;13.250;2023-04-06T02:13:08;1.70;90.90
7290;DHT22;63176;52.678;13.250;2023-04-06T02:15:34;1.70;90.70
7290;DHT22;63176;52.678;13.250;2023-04-06T02:18:00;1.60;90.30
7290;DHT22;63176;52.678;13.250;2023-04-06T02:20:26;1.50;90.10
7290;DHT22;63176;52.678;13.250;2023-04-06T02:22:51;1.40;90.20
7290;DHT22;63176;52.678;13.250;2023-04-06T02:25:17;1.50;91.10
7290;DHT22;63176;52.678;13.250;2023-04-06T02:27:43;1.50;90.30
7290;DHT22;63176;52.678;13.250;2023-04-06T02:30:09;1.50;89.90
7290;DHT22;63176;52.678;13.250;2023-04-06T02:32:35;1.50;90.30
7290;DHT22;63176;52.678;13.250;2023-04-06T02:35:00;1.50;90.60
7290;DHT22;63176;52.678;13.250;2023-04-06T02:37:26;1.50;90.10
7290;DHT22;63176;52.678;13.250;2023-04-06T02:39:52;1.40;89.20
7290;DHT22;63176;52.678;13.250;2023-04-06T02:42:17;1.40;89.40
7290;DHT22;63176;52.678;13.250;2023-04-06T02:44:43;1.30;89.90
7290;DHT22;63176;52.678;13.250;2023-04-06T02:47:09;1.30;90.20
7290;DHT22;63176;52.678;13.250;2023-04-06T02:49:35;1.30;89.10
7290;DHT22;63176;52.678;13.250;2023-04-06T02:52:01;1.20;88.20
7290;DHT22;63176;52.678;13.250;2023-04-06T02:54:27;1.10;88.80
7290;DHT22;63176;52.678;13.250;2023-04-06T02:56:52;1.10;89.20
7290;DHT22;63176;52.678;13.250;2023-04-06T02:59:18;1.20;90.20
7290;DHT22;63176;52.678;13.250;2023-04-06T03:01:44;1.20;90.30
7290;DHT22;63176;52.678;13.250;2023-04-06T03:04:09;1.10;90.60
7290;DHT22;63176;52.678;13.250;2023-04-06T03:06:36;1.00;87.70
7290;DHT22;63176;52.678;13.250;2023-04-06T03:09:02;1.10;90.30
7290;DHT22;63176;52.678;13.250;2023-04-06T03:11:27;1.20;91.00
7290;DHT22;63176;52.678;13.250;2023-04-06T03:13:53;1.10;89.20
7290;DHT22;63176;52.678;13.250;2023-04-06T03:16:19;1.00;88.40
7290;DHT22;63176;52.678;13.250;2023-04-06T03:18:44;1.00;88.90
7290;DHT22;63176;52.678;13.250;2023-04-06T03:21:10;1.00;88.90
7290;DHT22;63176;52.678;13.250;2023-04-06T03:23:36;1.00;87.80
7290;DHT22;63176;52.678;13.250;2023-04-06T03:26:02;1.00;89.70
7290;DHT22;63176;52.678;13.250;2023-04-06T03:28:28;0.90;88.10
7290;DHT22;63176;52.678;13.250;2023-04-06T03:30:53;0.80;87.20
7290;DHT22;63176;52.678;13.250;2023-04-06T03:33:19;0.80;87.60
7290;DHT22;63176;52.678;13.250;2023-04-06T03:35:45;0.80;89.80
7290;DHT22;63176;52.678;13.250;2023-04-06T03:38:11;0.80;89.90
7290;DHT22;63176;52.678;13.250;2023-04-06T03:40:36;0.80;88.00
7290;DHT22;63176;52.678;13.250;2023-04-06T03:43:03;0.70;87.50
7290;DHT22;63176;52.678;13.250;2023-04-06T03:45:29;0.70;88.70
7290;DHT22;63176;52.678;13.250;2023-04-06T03:47:55;0.70;90.00
7290;DHT22;63176;52.678;13.250;2023-04-06T03:50:20;0.80;90.80
7290;DHT22;63176;52.678;13.250;2023-04-06T03:52:47;0.80;89.80
7290;DHT22;63176;52.678;13.250;2023-04-06T03:55:12;0.80;89.80
7290;DHT22;63176;52.678;13.250;2023-04-06T03:57:38;0.80;90.60
7290;DHT22;63176;52.678;13.250;2023-04-06T04:00:04;0.70;88.70
7290;DHT22;63176;52.678;13.250;2023-04-06T04:02:30;0.70;88.00
7290;DHT22;63176;52.678;13.250;2023-04-06T04:04:55;0.70;88.20
7290;DHT22;63176;52.678;13.250;2023-04-06T04:07:21;0.80;90.40
7290;DHT22;63176;52.678;13.250;2023-04-06T04:09:47;0.70;89.70
7290;DHT22;63176;52.678;13.250;2023-04-06T04:12:12;0.60;89.00
7290;DHT22;63176;52.678;13.250;2023-04-06T04:14:40;0.60;89.10
7290;DHT22;63176;52.678;13.250;2023-04-06T04:17:05;0.60;90.40
7290;DHT22;63176;52.678;13.250;2023-04-06T04:19:31;0.70;90.50
7290;DHT22;63176;52.678;13.250;2023-04-06T04:21:56;0.60;87.90
7290;DHT22;63176;52.678;13.250;2023-04-06T04:24:22;0.60;88.00
7290;DHT22;63176;52.678;13.250;2023-04-06T04:26:48;0.50;87.70
7290;DHT22;63176;52.678;13.250;2023-04-06T04:29:13;0.50;87.10
7290;DHT22;63176;52.678;13.250;2023-04-06T04:31:39;0.50;88.90
7290;DHT22;63176;52.678;13.250;2023-04-06T04:34:05;0.50;88.70
7290;DHT22;63176;52.678;13.250;2023-04-06T04:36:32;0.30;88.60
7290;DHT22;63176;52.678;13.250;2023-04-06T04:38:57;0.40;89.80
7290;DHT22;63176;52.678;13.250;2023-04-06T04:41:23;0.40;90.00
7290;DHT22;63176;52.678;13.250;2023-04-06T04:43:49;0.40;90.30
7290;DHT22;63176;52.678;13.250;2023-04-06T04:46:14;0.50;89.60
7290;DHT22;63176;52.678;13.250;2023-04-06T04:48:40;0.40;88.70
7290;DHT22;63176;52.678;13.250;2023-04-06T04:51:06;0.40;89.50
7290;DHT22;63176;52.678;13.250;2023-04-06T04:53:32;0.40;90.90
7290;DHT22;63176;52.678;13.250;2023-04-06T04:55:57;0.50;90.90
7290;DHT22;63176;52.678;13.250;2023-04-06T04:58:23;0.50;90.10
7290;DHT22;63176;52.678;13.250;2023-04-06T05:00:49;0.40;89.00
7290;DHT22;63176;52.678;13.250;2023-04-06T05:03:25;0.40;89.90
7290;DHT22;63176;52.678;13.250;2023-04-06T05:05:51;0.40;89.70
7290;DHT22;63176;52.678;13.250;2023-04-06T05:08:17;0.40;99.90
7290;DHT22;63176;52.678;13.250;2023-04-06T05:10:43;0.60;91.40
7290;DHT22;63176;52.678;13.250;2023-04-06T05:13:09;0.50;92.00
7290;DHT22;63176;52.678;13.250;2023-04-06T05:15:35;0.50;91.40
7290;DHT22;63176;52.678;13.250;2023-04-06T05:18:04;0.50;91.20
7290;DHT22;63176;52.678;13.250;2023-04-06T05:20:30;0.60;91.80
7290;DHT22;63176;52.678;13.250;2023-04-06T05:22:56;0.60;91.90
7290;DHT22;63176;52.678;13.250;2023-04-06T05:25:22;0.60;92.90
7290;DHT22;63176;52.678;13.250;2023-04-06T05:27:47;0.70;92.80
7290;DHT22;63176;52.678;13.250;2023-04-06T05:30:13;0.70;93.20
7290;DHT22;63176;52.678;13.250;2023-04-06T05:32:40;0.70;93.10
7290;DHT22;63176;52.678;13.250;2023-04-06T05:35:05;0.80;93.40
7290;DHT22;63176;52.678;13.250;2023-04-06T05:37:31;0.80;94.40
7290;DHT22;63176;52.678;13.250;2023-04-06T05:39:57;0.80;94.00
7290;DHT22;63176;52.678;13.250;2023-04-06T05:42:23;0.90;94.40
7290;DHT22;63176;52.678;13.250;2023-04-06T05:44:48;0.90;95.20
7290;DHT22;63176;52.678;13.250;2023-04-06T05:47:14;1.00;96.20
7290;DHT22;63176;52.678;13.250;2023-04-06T05:49:41;1.10;95.70
7290;DHT22;63176;52.678;13.250;2023-04-06T05:52:08;1.10;96.50
7290;DHT22;63176;52.678;13.250;2023-04-06T05:54:35;1.10;96.80
7290;DHT22;63176;52.678;13.250;2023-04-06T05:57:02;1.30;97.90
7290;DHT22;63176;52.678;13.250;2023-04-06T05:59:30;1.30;98.70
7290;DHT22;63176;52.678;13.250;2023-04-06T06:01:56;1.30;99.50
7290;DHT22;63176;52.678;13.250;2023-04-06T06:04:21;1.50;99.90
7290;DHT22;63176;52.678;13.250;2023-04-06T06:06:47;1.60;99.90
7290;DHT22;63176;52.678;13.250;2023-04-06T06:09:13;1.60;99.90
7290;DHT22;63176;52.678;13.250;2023-04-06T06:11:38;1.80;99.90
7290;DHT22;63176;52.678;13.250;2023-04-06T06:14:04;1.90;99.90
7290;DHT22;63176;52.678;13.250;2023-04-06T06:16:30;2.10;99.90
7290;DHT22;63176;52.678;13.250;2023-04-06T06:18:56;2.30;99.90
7290;DHT22;63176;52.678;13.250;2023-04-06T06:21:21;2.50;99.90
7290;DHT22;63176;52.678;13.250;2023-04-06T06:23:47;2.70;99.90
7290;DHT22;63176;52.678;13.250;2023-04-06T06:26:14;2.90;99.90
7290;DHT22;63176;52.678;13.250;2023-04-06T06:28:40;3.10;99.90
7290;DHT22;63176;52.678;13.250;2023-04-06T06:31:06;3.30;99.90
7290;DHT22;63176;52.678;13.250;2023-04-06T06:33:32;3.50;99.90
7290;DHT22;63176;52.678;13.250;2023-04-06T06:35:58;3.70;99.90
7290;DHT22;63176;52.678;13.250;2023-04-06T06:38:24;3.90;99.90
7290;DHT22;63176;52.678;13.250;2023-04-06T06:40:49;4.10;99.90
7290;DHT22;63176;52.678;13.250;2023-04-06T06:43:15;4.20;99.90
7290;DHT22;63176;52.678;13.250;2023-04-06T06:45:41;4.40;99.90
7290;DHT22;63176;52.678;13.250;2023-04-06T06:48:07;4.50;99.90
7290;DHT22;63176;52.678;13.250;2023-04-06T06:50:32;4.70;99.90
7290;DHT22;63176;52.678;13.250;2023-04-06T06:52:58;4.80;99.90
7290;DHT22;63176;52.678;13.250;2023-04-06T06:55:24;4.90;99.90
7290;DHT22;63176;52.678;13.250;2023-04-06T06:57:50;5.10;99.90
7290;DHT22;63176;52.678;13.250;2023-04-06T07:00:16;5.20;99.90
7290;DHT22;63176;52.678;13.250;2023-04-06T07:02:42;5.30;99.90
7290;DHT22;63176;52.678;13.250;2023-04-06T07:05:08;5.40;99.90
7290;DHT22;63176;52.678;13.250;2023-04-06T07:07:34;5.50;99.90
7290;DHT22;63176;52.678;13.250;2023-04-06T07:10:00;5.60;99.90
7290;DHT22;63176;52.678;13.250;2023-04-06T07:12:26;5.80;99.90
7290;DHT22;63176;52.678;13.250;2023-04-06T07:14:52;5.90;99.90
7290;DHT22;63176;52.678;13.250;2023-04-06T07:17:18;6.10;99.90
7290;DHT22;63176;52.678;13.250;2023-04-06T07:19:44;6.20;99.90
7290;DHT22;63176;52.678;13.250;2023-04-06T07:22:10;6.20;99.90
7290;DHT22;63176;52.678;13.250;2023-04-06T07:24:36;6.30;99.90
7290;DHT22;63176;52.678;13.250;2023-04-06T07:27:02;6.40;99.90
7290;DHT22;63176;52.678;13.250;2023-04-06T07:29:28;6.50;99.90
7290;DHT22;63176;52.678;13.250;2023-04-06T07:31:54;6.60;99.90
7290;DHT22;63176;52.678;13.250;2023-04-06T07:34:21;6.70;99.90
7290;DHT22;63176;52.678;13.250;2023-04-06T07:36:47;6.80;99.90
7290;DHT22;63176;52.678;13.250;2023-04-06T07:39:13;6.90;99.90
7290;DHT22;63176;52.678;13.250;2023-04-06T07:41:38;6.90;99.90
7290;DHT22;63176;52.678;13.250;2023-04-06T07:44:04;7.00;99.90
7290;DHT22;63176;52.678;13.250;2023-04-06T07:46:30;7.00;98.80
7290;DHT22;63176;52.678;13.250;2023-04-06T07:48:57;7.10;99.10
7290;DHT22;63176;52.678;13.250;2023-04-06T07:51:23;7.20;99.70
7290;DHT22;63176;52.678;13.250;2023-04-06T07:53:50;7.30;98.30
7290;DHT22;63176;52.678;13.250;2023-04-06T07:56:16;7.50;98.40
7290;DHT22;63176;52.678;13.250;2023-04-06T07:58:42;7.60;98.40
7290;DHT22;63176;52.678;13.250;2023-04-06T08:01:08;7.60;97.00
7290;DHT22;63176;52.678;13.250;2023-04-06T08:03:34;7.70;97.60
7290;DHT22;63176;52.678;13.250;2023-04-06T08:06:00;7.80;96.10
7290;DHT22;63176;52.678;13.250;2023-04-06T08:08:26;7.90;96.30
7290;DHT22;63176;52.678;13.250;2023-04-06T08:10:51;7.90;95.40
7290;DHT22;63176;52.678;13.250;2023-04-06T08:13:18;7.90;94.90
7290;DHT22;63176;52.678;13.250;2023-04-06T08:15:44;8.00;95.80
7290;DHT22;63176;52.678;13.250;2023-04-06T08:18:10;8.10;99.90
7290;DHT22;63176;52.678;13.250;2023-04-06T08:20:36;8.10;96.40
7290;DHT22;63176;52.678;13.250;2023-04-06T08:23:02;8.20;95.00
7290;DHT22;63176;52.678;13.250;2023-04-06T08:25:28;8.30;95.70
7290;DHT22;63176;52.678;13.250;2023-04-06T08:27:53;8.40;94.20
7290;DHT22;63176;52.678;13.250;2023-04-06T08:30:19;8.40;92.70
7290;DHT22;63176;52.678;13.250;2023-04-06T08:32:46;8.60;94.90
7290;DHT22;63176;52.678;13.250;2023-04-06T08:35:12;8.70;92.90
7290;DHT22;63176;52.678;13.250;2023-04-06T08:37:38;8.70;99.90
7290;DHT22;63176;52.678;13.250;2023-04-06T08:40:04;8.70;90.90
7290;DHT22;63176;52.678;13.250;2023-04-06T08:42:32;8.70;90.90
7290;DHT22;63176;52.678;13.250;2023-04-06T08:44:59;8.70;89.80
7290;DHT22;63176;52.678;13.250;2023-04-06T08:47:25;8.90;91.30
7290;DHT22;63176;52.678;13.250;2023-04-06T08:49:52;9.00;90.20
7290;DHT22;63176;52.678;13.250;2023-04-06T08:52:19;9.00;86.60
7290;DHT22;63176;52.678;13.250;2023-04-06T08:54:45;9.10;87.30
7290;DHT22;63176;52.678;13.250;2023-04-06T08:57:11;9.10;88.10
7290;DHT22;63176;52.678;13.250;2023-04-06T08:59:38;9.10;89.10
7290;DHT22;63176;52.678;13.250;2023-04-06T09:02:04;9.20;90.00
7290;DHT22;63176;52.678;13.250;2023-04-06T09:04:35;9.50;90.60
7290;DHT22;63176;52.678;13.250;2023-04-06T09:07:01;9.60;88.00
7290;DHT22;63176;52.678;13.250;2023-04-06T09:09:26;9.70;90.70
7290;DHT22;63176;52.678;13.250;2023-04-06T09:11:53;9.90;91.70
7290;DHT22;63176;52.678;13.250;2023-04-06T09:14:38;10.00;92.10
7290;DHT22;63176;52.678;13.250;2023-04-06T09:17:05;10.20;92.00
7290;DHT22;63176;52.678;13.250;2023-04-06T09:19:31;10.60;92.40
7290;DHT22;63176;52.678;13.250;2023-04-06T09:22:06;10.80;93.90
7290;DHT22;63176;52.678;13.250;2023-04-06T09:24:49;10.90;90.00
7290;DHT22;63176;52.678;13.250;2023-04-06T09:27:16;10.90;90.00
7290;DHT22;63176;52.678;13.250;2023-04-06T09:29:42;11.00;88.10
7290;DHT22;63176;52.678;13.250;2023-04-06T09:32:09;10.90;86.30
7290;DHT22;63176;52.678;13.250;2023-04-06T09:34:42;11.00;89.30
7290;DHT22;63176;52.678;13.250;2023-04-06T09:37:17;11.00;88.70
7290;DHT22;63176;52.678;13.250;2023-04-06T09:39:44;11.20;87.20
7290;DHT22;63176;52.678;13.250;2023-04-06T09:42:26;11.50;89.60
7290;DHT22;63176;52.678;13.250;2023-04-06T09:44:52;11.80;90.00
7290;DHT22;63176;52.678;13.250;2023-04-06T09:47:18;12.30;94.60
7290;DHT22;63176;52.678;13.250;2023-04-06T09:49:46;12.80;89.30
7290;DHT22;63176;52.678;13.250;2023-04-06T09:52:13;13.10;92.00
7290;DHT22;63176;52.678;13.250;2023-04-06T09:54:40;13.60;95.20
7290;DHT22;63176;52.678;13.250;2023-04-06T09:57:25;13.80;92.80
7290;DHT22;63176;52.678;13.250;2023-04-06T10:00:05;13.90;92.10
7290;DHT22;63176;52.678;13.250;2023-04-06T10:02:58;14.00;91.00
7290;DHT22;63176;52.678;13.250;2023-04-06T10:08:10;14.30;91.40
7290;DHT22;63176;52.678;13.250;2023-04-06T10:10:36;14.30;91.80
7290;DHT22;63176;52.678;13.250;2023-04-06T10:13:03;14.40;90.40
7290;DHT22;63176;52.678;13.250;2023-04-06T10:15:30;14.40;92.40
7290;DHT22;63176;52.678;13.250;2023-04-06T10:18:00;14.60;90.60
7290;DHT22;63176;52.678;13.250;2023-04-06T10:23:00;15.10;90.40
7290;DHT22;63176;52.678;13.250;2023-04-06T10:25:31;15.10;86.70
7290;DHT22;63176;52.678;13.250;2023-04-06T10:28:04;15.30;90.10
7290;DHT22;63176;52.678;13.250;2023-04-06T10:30:31;15.20;90.40
7290;DHT22;63176;52.678;13.250;2023-04-06T10:32:57;15.40;88.60
7290;DHT22;63176;52.678;13.250;2023-04-06T10:35:23;15.50;84.20
7290;DHT22;63176;52.678;13.250;2023-04-06T10:37:53;15.50;82.60
7290;DHT22;63176;52.678;13.250;2023-04-06T10:40:26;15.60;83.30
7290;DHT22;63176;52.678;13.250;2023-04-06T10:42:53;15.70;84.50
7290;DHT22;63176;52.678;13.250;2023-04-06T10:45:25;15.60;78.90
7290;DHT22;63176;52.678;13.250;2023-04-06T10:47:54;15.40;78.00
7290;DHT22;63176;52.678;13.250;2023-04-06T10:50:21;15.60;78.00
7290;DHT22;63176;52.678;13.250;2023-04-06T10:52:47;15.70;81.50
7290;DHT22;63176;52.678;13.250;2023-04-06T10:55:23;16.00;78.10
7290;DHT22;63176;52.678;13.250;2023-04-06T10:57:49;16.20;77.10
7290;DHT22;63176;52.678;13.250;2023-04-06T11:00:17;16.20;78.30
7290;DHT22;63176;52.678;13.250;2023-04-06T11:02:43;16.20;79.20
7290;DHT22;63176;52.678;13.250;2023-04-06T11:05:12;16.50;83.30
7290;DHT22;63176;52.678;13.250;2023-04-06T11:07:39;16.70;78.30
7290;DHT22;63176;52.678;13.250;2023-04-06T11:10:06;16.80;78.30
7290;DHT22;63176;52.678;13.250;2023-04-06T11:12:32;16.70;74.60
7290;DHT22;63176;52.678;13.250;2023-04-06T11:15:00;16.90;78.20
7290;DHT22;63176;52.678;13.250;2023-04-06T11:17:34;16.90;72.00
7290;DHT22;63176;52.678;13.250;2023-04-06T11:20:02;16.70;71.70
7290;DHT22;63176;52.678;13.250;2023-04-06T11:22:29;16.70;68.10
7290;DHT22;63176;52.678;13.250;2023-04-06T11:25:05;16.70;68.40
7290;DHT22;63176;52.678;13.250;2023-04-06T11:27:33;16.80;64.90
7290;DHT22;63176;52.678;13.250;2023-04-06T11:30:00;16.70;65.90
7290;DHT22;63176;52.678;13.250;2023-04-06T11:32:26;16.70;67.00
7290;DHT22;63176;52.678;13.250;2023-04-06T11:34:52;16.70;66.60
7290;DHT22;63176;52.678;13.250;2023-04-06T11:37:18;16.80;64.80
7290;DHT22;63176;52.678;13.250;2023-04-06T11:39:49;16.80;68.40
7290;DHT22;63176;52.678;13.250;2023-04-06T11:44:56;17.00;62.30
7290;DHT22;63176;52.678;13.250;2023-04-06T11:47:55;17.00;61.70
7290;DHT22;63176;52.678;13.250;2023-04-06T11:50:21;17.10;66.40
7290;DHT22;63176;52.678;13.250;2023-04-06T11:52:58;17.20;62.10
7290;DHT22;63176;52.678;13.250;2023-04-06T11:55:24;17.10;60.10
7290;DHT22;63176;52.678;13.250;2023-04-06T11:57:50;17.20;58.10
7290;DHT22;63176;52.678;13.250;2023-04-06T12:00:17;17.40;58.40
7290;DHT22;63176;52.678;13.250;2023-04-06T12:02:46;17.40;57.60
7290;DHT22;63176;52.678;13.250;2023-04-06T12:05:12;17.50;58.40
7290;DHT22;63176;52.678;13.250;2023-04-06T12:07:38;17.50;57.60
7290;DHT22;63176;52.678;13.250;2023-04-06T12:10:04;17.60;58.40
7290;DHT22;63176;52.678;13.250;2023-04-06T12:12:30;17.60;58.80
7290;DHT22;63176;52.678;13.250;2023-04-06T12:14:57;17.80;58.40
7290;DHT22;63176;52.678;13.250;2023-04-06T12:17:22;18.00;60.00
7290;DHT22;63176;52.678;13.250;2023-04-06T12:19:49;18.20;60.50
7290;DHT22;63176;52.678;13.250;2023-04-06T12:22:15;18.10;59.40
7290;DHT22;63176;52.678;13.250;2023-04-06T12:24:41;18.20;60.20
7290;DHT22;63176;52.678;13.250;2023-04-06T12:27:06;18.20;64.10
7290;DHT22;63176;52.678;13.250;2023-04-06T12:29:32;18.10;56.20
7290;DHT22;63176;52.678;13.250;2023-04-06T12:31:59;17.80;55.70
7290;DHT22;63176;52.678;13.250;2023-04-06T12:34:26;17.80;52.20
7290;DHT22;63176;52.678;13.250;2023-04-06T12:36:52;17.80;53.00
7290;DHT22;63176;52.678;13.250;2023-04-06T12:39:18;17.40;49.60
7290;DHT22;63176;52.678;13.250;2023-04-06T12:41:44;17.20;49.50
7290;DHT22;63176;52.678;13.250;2023-04-06T12:44:09;17.20;46.70
7290;DHT22;63176;52.678;13.250;2023-04-06T12:46:36;17.60;50.10
7290;DHT22;63176;52.678;13.250;2023-04-06T12:49:02;18.00;50.30
7290;DHT22;63176;52.678;13.250;2023-04-06T12:51:28;18.00;49.60
7290;DHT22;63176;52.678;13.250;2023-04-06T12:53:54;18.10;51.10
7290;DHT22;63176;52.678;13.250;2023-04-06T12:56:20;18.30;51.90
7290;DHT22;63176;52.678;13.250;2023-04-06T12:58:51;18.50;52.00
7290;DHT22;63176;52.678;13.250;2023-04-06T13:01:17;18.70;51.00
7290;DHT22;63176;52.678;13.250;2023-04-06T13:03:43;18.60;51.90
7290;DHT22;63176;52.678;13.250;2023-04-06T13:06:09;18.60;53.00
7290;DHT22;63176;52.678;13.250;2023-04-06T13:08:35;18.60;50.60
7290;DHT22;63176;52.678;13.250;2023-04-06T13:11:05;18.60;49.30
7290;DHT22;63176;52.678;13.250;2023-04-06T13:13:32;18.60;50.60
7290;DHT22;63176;52.678;13.250;2023-04-06T13:16:03;18.80;49.00
7290;DHT22;63176;52.678;13.250;2023-04-06T13:18:29;18.80;48.40
7290;DHT22;63176;52.678;13.250;2023-04-06T13:20:57;18.90;51.90
7290;DHT22;63176;52.678;13.250;2023-04-06T13:23:23;18.90;47.70
7290;DHT22;63176;52.678;13.250;2023-04-06T13:26:00;19.20;50.00
7290;DHT22;63176;52.678;13.250;2023-04-06T13:28:27;19.20;47.40
7290;DHT22;63176;52.678;13.250;2023-04-06T13:30:54;19.20;50.00
7290;DHT22;63176;52.678;13.250;2023-04-06T13:33:20;19.20;47.60
7290;DHT22;63176;52.678;13.250;2023-04-06T13:35:46;19.10;47.20
7290;DHT22;63176;52.678;13.250;2023-04-06T13:38:12;19.00;45.70
7290;DHT22;63176;52.678;13.250;2023-04-06T13:40:42;19.20;47.10
7290;DHT22;63176;52.678;13.250;2023-04-06T13:43:07;19.40;44.90
7290;DHT22;63176;52.678;13.250;2023-04-06T13:45:33;19.50;47.90
7290;DHT22;63176;52.678;13.250;2023-04-06T13:47:59;19.50;49.80
7290;DHT22;63176;52.678;13.250;2023-04-06T13:50:26;19.50;49.70
7290;DHT22;63176;52.678;13.250;2023-04-06T13:52:52;19.40;50.00
7290;DHT22;63176;52.678;13.250;2023-04-06T13:55:18;19.60;49.90
7290;DHT22;63176;52.678;13.250;2023-04-06T13:57:44;19.40;50.20
7290;DHT22;63176;52.678;13.250;2023-04-06T14:00:10;19.50;47.50
7290;DHT22;63176;52.678;13.250;2023-04-06T14:02:38;19.40;48.00
7290;DHT22;63176;52.678;13.250;2023-04-06T14:05:04;19.30;47.70
7290;DHT22;63176;52.678;13.250;2023-04-06T14:07:30;19.30;45.90
7290;DHT22;63176;52.678;13.250;2023-04-06T14:09:56;19.10;42.90
7290;DHT22;63176;52.678;13.250;2023-04-06T14:12:22;18.80;42.60
7290;DHT22;63176;52.678;13.250;2023-04-06T14:14:47;18.60;39.20
7290;DHT22;63176;52.678;13.250;2023-04-06T14:17:13;18.20;39.00
7290;DHT22;63176;52.678;13.250;2023-04-06T14:19:38;18.00;35.60
7290;DHT22;63176;52.678;13.250;2023-04-06T14:22:05;17.90;37.30
7290;DHT22;63176;52.678;13.250;2023-04-06T14:24:31;18.00;35.80
7290;DHT22;63176;52.678;13.250;2023-04-06T14:26:57;18.30;35.80
7290;DHT22;63176;52.678;13.250;2023-04-06T14:29:23;18.70;37.50
7290;DHT22;63176;52.678;13.250;2023-04-06T14:31:49;19.00;40.30
7290;DHT22;63176;52.678;13.250;2023-04-06T14:34:14;19.30;40.00
7290;DHT22;63176;52.678;13.250;2023-04-06T14:36:43;19.30;39.30
7290;DHT22;63176;52.678;13.250;2023-04-06T14:39:09;19.50;40.40
7290;DHT22;63176;52.678;13.250;2023-04-06T14:41:35;19.70;40.90
7290;DHT22;63176;52.678;13.250;2023-04-06T14:44:01;19.70;40.70
7290;DHT22;63176;52.678;13.250;2023-04-06T14:46:27;19.80;40.60
7290;DHT22;63176;52.678;13.250;2023-04-06T14:48:56;19.80;39.90
7290;DHT22;63176;52.678;13.250;2023-04-06T14:51:26;19.50;39.50
7290;DHT22;63176;52.678;13.250;2023-04-06T14:53:55;19.30;38.30
7290;DHT22;63176;52.678;13.250;2023-04-06T14:56:22;18.90;36.10
7290;DHT22;63176;52.678;13.250;2023-04-06T14:58:48;18.60;33.10
7290;DHT22;63176;52.678;13.250;2023-04-06T15:01:14;18.30;30.20
7290;DHT22;63176;52.678;13.250;2023-04-06T15:03:40;17.70;28.60
7290;DHT22;63176;52.678;13.250;2023-04-06T15:06:12;17.40;26.40
7290;DHT22;63176;52.678;13.250;2023-04-06T15:08:40;17.00;24.60
7290;DHT22;63176;52.678;13.250;2023-04-06T15:11:05;16.70;22.50
7290;DHT22;63176;52.678;13.250;2023-04-06T15:13:31;16.50;22.30
7290;DHT22;63176;52.678;13.250;2023-04-06T15:15:57;16.20;20.90
7290;DHT22;63176;52.678;13.250;2023-04-06T15:18:22;15.80;18.40
7290;DHT22;63176;52.678;13.250;2023-04-06T15:20:48;15.50;18.30
7290;DHT22;63176;52.678;13.250;2023-04-06T15:23:13;15.30;17.40
7290;DHT22;63176;52.678;13.250;2023-04-06T15:25:39;15.20;16.10
7290;DHT22;63176;52.678;13.250;2023-04-06T15:28:06;15.10;15.80
7290;DHT22;63176;52.678;13.250;2023-04-06T15:30:32;14.90;26.50
7290;DHT22;63176;52.678;13.250;2023-04-06T15:32:59;14.80;13.20
7290;DHT22;63176;52.678;13.250;2023-04-06T15:35:26;14.60;12.40
7290;DHT22;63176;52.678;13.250;2023-04-06T15:37:53;14.50;12.40
7290;DHT22;63176;52.678;13.250;2023-04-06T15:40:18;14.40;23.80
7290;DHT22;63176;52.678;13.250;2023-04-06T15:42:44;14.40;12.70
7290;DHT22;63176;52.678;13.250;2023-04-06T15:45:10;14.70;14.40